Time;durP1;ratioP1;P1;durP2;ratioP2;P2;SDS_P1;SDS_P2;PMS_P1;PMS_P2;Temp;Humidity;BMP_temperature;BMP_pressure;BME280_temperature;BME280_humidity;BME280_pressure;Samples;Min_cycle;Max_cycle;Signal;HPM_P1;HPM_P2
2022/12/27 00:00:40;;;;;;;1.37;1.10;;;;;;;;;;5092796;28;20446;-67
2022/12/27 00:03:07;;;;;;;2.00;0.90;;;;;;;;;;5092921;28;20824;-67
2022/12/27 00:05:34;;;;;;;3.33;1.13;;;;;;;;;;5092304;28;20826;-67
2022/12/27 00:08:01;;;;;;;1.40;0.90;;;;;;;;;;5092490;28;20470;-67
2022/12/27 00:10:30;;;;;;;2.53;1.00;;;;;;;;;;5092655;28;20447;-67
2022/12/27 00:12:57;;;;;;;1.30;0.90;;;;;;;;;;5091277;28;20484;-67
2022/12/27 00:15:24;;;;;;;1.60;0.90;;;;;;;;;;5092068;28;20450;-67
2022/12/27 00:17:51;;;;;;;1.40;1.00;;;;;;;;;;5092444;28;20490;-67
2022/12/27 00:20:18;;;;;;;1.63;1.00;;;;;;;;;;5091854;28;20457;-67
2022/12/27 00:22:46;;;;;;;2.23;1.00;;;;;;;;;;5091179;28;20450;-67
2022/12/27 00:25:13;;;;;;;1.30;0.97;;;;;;;;;;5092200;28;20463;-67
2022/12/27 00:27:41;;;;;;;2.00;0.90;;;;;;;;;;5090349;28;20466;-67
2022/12/27 00:30:09;;;;;;;1.67;0.97;;;;;;;;;;5093006;28;20458;-67
2022/12/27 00:32:36;;;;;;;1.43;1.00;;;;;;;;;;5092491;28;20451;-67
2022/12/27 00:35:03;;;;;;;2.37;0.80;;;;;;;;;;5092062;28;20876;-67
2022/12/27 00:37:30;;;;;;;1.63;1.33;;;;;;;;;;5092474;28;20490;-67
2022/12/27 00:39:58;;;;;;;1.60;1.10;;;;;;;;;;5092358;28;20450;-67
2022/12/27 00:42:25;;;;;;;3.07;1.30;;;;;;;;;;5092469;28;20898;-67
2022/12/27 00:44:53;;;;;;;1.77;1.20;;;;;;;;;;5091707;28;20822;-67
2022/12/27 00:47:20;;;;;;;1.30;1.00;;;;;;;;;;5092211;28;20457;-68
2022/12/27 00:49:47;;;;;;;2.47;1.07;;;;;;;;;;5092211;28;20458;-67
2022/12/27 00:52:15;;;;;;;1.77;1.10;;;;;;;;;;5092299;28;20449;-67
2022/12/27 00:54:42;;;;;;;3.73;1.57;;;;;;;;;;5091735;28;20456;-67
2022/12/27 00:57:09;;;;;;;1.77;1.00;;;;;;;;;;5091190;28;20486;-67
2022/12/27 00:59:36;;;;;;;1.57;1.20;;;;;;;;;;5091986;28;20969;-67
2022/12/27 01:02:04;;;;;;;2.00;1.20;;;;;;;;;;5090196;28;20827;-67
2022/12/27 01:04:31;;;;;;;1.20;0.83;;;;;;;;;;5093097;28;20804;-67
2022/12/27 01:06:58;;;;;;;1.50;1.00;;;;;;;;;;5095692;28;20451;-67
2022/12/27 01:09:26;;;;;;;3.30;1.20;;;;;;;;;;5095330;28;20485;-67
2022/12/27 01:11:53;;;;;;;1.27;0.90;;;;;;;;;;5094404;28;20461;-67
2022/12/27 01:14:20;;;;;;;1.30;0.90;;;;;;;;;;5095177;28;20467;-67
2022/12/27 01:16:47;;;;;;;2.43;1.20;;;;;;;;;;5095294;28;20482;-67
2022/12/27 01:19:16;;;;;;;3.23;1.37;;;;;;;;;;5095674;28;20470;-67
2022/12/27 01:21:43;;;;;;;2.07;1.03;;;;;;;;;;5095674;28;20461;-67
2022/12/27 01:24:11;;;;;;;2.90;1.20;;;;;;;;;;5095384;28;20450;-67
2022/12/27 01:26:38;;;;;;;2.33;1.47;;;;;;;;;;5095400;28;20439;-67
2022/12/27 01:29:05;;;;;;;1.43;1.10;;;;;;;;;;5095200;28;20475;-67
2022/12/27 01:31:32;;;;;;;1.53;1.03;;;;;;;;;;5095233;28;20944;-67
2022/12/27 01:33:59;;;;;;;1.57;1.00;;;;;;;;;;5093566;28;20865;-67
2022/12/27 01:36:28;;;;;;;1.50;1.20;;;;;;;;;;5095354;28;20447;-67
2022/12/27 01:38:56;;;;;;;1.40;1.00;;;;;;;;;;5093139;28;21015;-67
2022/12/27 01:44:24;;;;;;;1.70;1.03;;;;;;;;;;5094844;28;20560;-67
2022/12/27 01:46:51;;;;;;;4.00;1.30;;;;;;;;;;5094924;28;20443;-67
2022/12/27 01:49:18;;;;;;;1.67;1.10;;;;;;;;;;5095281;28;20466;-67
2022/12/27 01:51:47;;;;;;;1.40;1.20;;;;;;;;;;5094907;28;20453;-67
2022/12/27 01:54:14;;;;;;;1.40;1.00;;;;;;;;;;5094370;28;20962;-67
2022/12/27 01:56:41;;;;;;;1.57;1.10;;;;;;;;;;5094849;28;20454;-67
2022/12/27 01:59:10;;;;;;;1.40;0.87;;;;;;;;;;5094670;28;20470;-67
2022/12/27 02:01:39;;;;;;;1.40;0.90;;;;;;;;;;5094853;28;20451;-67
2022/12/27 02:04:07;;;;;;;1.47;1.20;;;;;;;;;;5094400;28;20480;-67
2022/12/27 02:06:36;;;;;;;2.50;0.93;;;;;;;;;;5094629;28;20447;-67
2022/12/27 02:09:08;;;;;;;3.90;1.70;;;;;;;;;;5093799;28;20478;-67
2022/12/27 02:11:51;;;;;;;3.73;2.90;;;;;;;;;;5094737;28;20454;-67
2022/12/27 02:14:20;;;;;;;1.70;1.23;;;;;;;;;;5093932;28;20496;-67
2022/12/27 02:16:47;;;;;;;2.10;1.30;;;;;;;;;;5093906;28;20462;-67
2022/12/27 02:19:19;;;;;;;2.43;1.30;;;;;;;;;;5094399;28;20478;-67
2022/12/27 02:21:59;;;;;;;1.90;1.70;;;;;;;;;;5094498;28;20940;-67
2022/12/27 02:24:46;;;;;;;2.40;1.30;;;;;;;;;;5093983;28;20442;-67
2022/12/27 02:27:20;;;;;;;1.97;1.33;;;;;;;;;;5088971;28;20850;-67
2022/12/27 02:29:52;;;;;;;2.10;1.50;;;;;;;;;;5094272;28;20816;-67
2022/12/27 02:32:23;;;;;;;3.43;1.10;;;;;;;;;;5094305;28;20443;-67
2022/12/27 02:34:55;;;;;;;2.87;1.20;;;;;;;;;;5093675;28;20451;-67
2022/12/27 02:37:24;;;;;;;2.33;1.27;;;;;;;;;;5093977;28;20560;-67
2022/12/27 02:39:52;;;;;;;4.93;1.20;;;;;;;;;;5094036;28;20864;-67
2022/12/27 02:53:50;;;;;;;1.40;1.10;;;;;;;;;;5031121;28;20943;-67
2022/12/27 02:59:14;;;;;;;1.63;1.13;;;;;;;;;;5093832;28;20531;-67
2022/12/27 03:04:42;;;;;;;2.30;1.70;;;;;;;;;;5093271;28;20422;-67
2022/12/27 03:07:15;;;;;;;4.33;1.47;;;;;;;;;;5093657;28;20797;-67
2022/12/27 03:15:55;;;;;;;4.70;1.30;;;;;;;;;;5092591;28;20480;-67
2022/12/27 03:18:26;;;;;;;2.63;1.30;;;;;;;;;;5091593;28;20501;-67
2022/12/27 03:26:25;;;;;;;3.20;3.00;;;;;;;;;;5093032;28;20426;-67
2022/12/27 03:34:34;;;;;;;2.10;1.63;;;;;;;;;;5092724;28;20935;-67
2022/12/27 03:39:50;;;;;;;2.73;1.73;;;;;;;;;;5093044;28;20942;-67
2022/12/27 03:45:06;;;;;;;4.30;1.30;;;;;;;;;;5092361;28;20946;-67
2022/12/27 03:47:36;;;;;;;5.20;1.23;;;;;;;;;;5092817;28;20469;-67
2022/12/27 03:50:07;;;;;;;1.73;1.50;;;;;;;;;;5092774;28;20446;-67
2022/12/27 03:52:37;;;;;;;2.60;1.10;;;;;;;;;;5090565;28;20955;-67
2022/12/27 03:55:04;;;;;;;2.10;1.33;;;;;;;;;;5092202;28;20456;-67
2022/12/27 03:57:31;;;;;;;3.40;1.50;;;;;;;;;;5090823;28;20487;-67
2022/12/27 03:59:58;;;;;;;3.10;1.40;;;;;;;;;;5092663;28;20477;-67
2022/12/27 04:02:26;;;;;;;1.60;1.20;;;;;;;;;;5092911;28;20459;-67
2022/12/27 04:04:53;;;;;;;1.50;1.20;;;;;;;;;;5091996;28;20450;-67
2022/12/27 04:07:21;;;;;;;2.07;1.23;;;;;;;;;;5092720;28;20447;-67
2022/12/27 04:34:41;;;;;;;1.70;1.30;;;;;;;;;;5091823;28;20483;-67
2022/12/27 04:37:09;;;;;;;1.80;1.40;;;;;;;;;;5092546;28;20474;-67
2022/12/27 04:39:38;;;;;;;3.07;1.40;;;;;;;;;;5095773;28;20453;-67
2022/12/27 04:55:56;;;;;;;2.23;1.30;;;;;;;;;;5096093;28;20468;-67
2022/12/27 04:58:23;;;;;;;2.20;1.37;;;;;;;;;;5095793;28;20516;-67
2022/12/27 05:03:35;;;;;;;3.10;1.63;;;;;;;;;;5092805;28;20993;-67
2022/12/27 05:06:02;;;;;;;2.37;1.60;;;;;;;;;;5095908;28;20453;-67
2022/12/27 05:14:02;;;;;;;3.00;1.53;;;;;;;;;;5093302;28;20430;-67
2022/12/27 05:16:30;;;;;;;3.10;1.53;;;;;;;;;;5095970;28;20948;-67
2022/12/27 05:18:57;;;;;;;3.80;1.60;;;;;;;;;;5095564;28;21010;-67
2022/12/27 05:21:24;;;;;;;2.77;1.70;;;;;;;;;;5095753;28;20450;-67
2022/12/27 05:26:38;;;;;;;2.50;2.10;;;;;;;;;;5095624;28;20426;-67
2022/12/27 05:29:06;;;;;;;3.73;2.30;;;;;;;;;;5095449;28;20497;-67
2022/12/27 05:31:33;;;;;;;2.00;1.60;;;;;;;;;;5095663;28;20792;-67
2022/12/27 05:34:00;;;;;;;7.00;1.70;;;;;;;;;;5094938;28;20451;-67
2022/12/27 05:36:27;;;;;;;5.60;2.00;;;;;;;;;;5095392;28;20447;-67
2022/12/27 05:38:55;;;;;;;2.27;1.60;;;;;;;;;;5094996;28;20494;-67
2022/12/27 05:41:22;;;;;;;4.93;2.00;;;;;;;;;;5095498;28;20558;-69
2022/12/27 05:43:50;;;;;;;2.27;1.40;;;;;;;;;;5092975;28;20458;-67
2022/12/27 05:46:19;;;;;;;3.23;1.90;;;;;;;;;;5094434;28;20466;-67
2022/12/27 05:48:46;;;;;;;2.27;1.90;;;;;;;;;;5092956;28;20463;-67
2022/12/27 05:51:15;;;;;;;3.20;1.63;;;;;;;;;;5094139;28;20477;-67
2022/12/27 05:53:42;;;;;;;5.80;2.27;;;;;;;;;;5094409;28;20446;-67
2022/12/27 05:56:12;;;;;;;3.40;1.70;;;;;;;;;;5092855;28;20458;-68
2022/12/27 05:58:39;;;;;;;3.50;2.37;;;;;;;;;;5074013;28;20487;-67
2022/12/27 06:01:10;;;;;;;3.93;1.87;;;;;;;;;;5074215;28;20454;-67
2022/12/27 06:03:37;;;;;;;7.70;1.50;;;;;;;;;;5073960;28;20452;-67
2022/12/27 06:06:04;;;;;;;2.77;1.80;;;;;;;;;;5074168;28;20467;-67
2022/12/27 06:08:32;;;;;;;5.87;3.27;;;;;;;;;;5089901;28;20475;-67
2022/12/27 06:11:03;;;;;;;3.33;2.10;;;;;;;;;;5094164;28;20564;-67
2022/12/27 06:13:31;;;;;;;5.20;1.60;;;;;;;;;;5092793;28;20473;-67
2022/12/27 06:15:59;;;;;;;3.30;1.97;;;;;;;;;;5094251;28;20473;-67
2022/12/27 06:18:28;;;;;;;2.30;1.67;;;;;;;;;;5092067;28;20490;-67
2022/12/27 06:20:55;;;;;;;2.73;1.70;;;;;;;;;;5093986;28;20474;-67
2022/12/27 06:23:23;;;;;;;4.70;1.80;;;;;;;;;;5092417;28;20824;-68
2022/12/27 06:25:50;;;;;;;3.77;1.70;;;;;;;;;;5093771;28;20827;-67
2022/12/27 06:28:17;;;;;;;2.73;1.40;;;;;;;;;;5093894;28;20876;-66
2022/12/27 06:30:44;;;;;;;9.30;2.30;;;;;;;;;;5094081;28;20477;-66
2022/12/27 06:33:11;;;;;;;2.43;1.67;;;;;;;;;;5094130;28;20466;-67
2022/12/27 06:35:39;;;;;;;3.73;2.13;;;;;;;;;;5094076;28;20458;-67
2022/12/27 06:38:06;;;;;;;2.00;1.60;;;;;;;;;;5093713;28;20487;-67
2022/12/27 06:40:33;;;;;;;2.63;1.73;;;;;;;;;;5093895;28;20453;-66
2022/12/27 06:43:00;;;;;;;3.27;2.00;;;;;;;;;;5093530;28;20446;-67
2022/12/27 06:45:28;;;;;;;3.17;2.50;;;;;;;;;;5093651;28;20454;-67
2022/12/27 06:47:55;;;;;;;3.33;2.00;;;;;;;;;;5093608;28;20913;-66
2022/12/27 06:50:22;;;;;;;4.00;2.50;;;;;;;;;;5092867;28;20446;-66
2022/12/27 06:52:50;;;;;;;7.10;2.97;;;;;;;;;;5092159;28;20669;-67
2022/12/27 06:55:17;;;;;;;1.90;1.60;;;;;;;;;;5093428;28;20458;-66
2022/12/27 06:57:44;;;;;;;2.60;1.90;;;;;;;;;;5093372;28;20994;-66
2022/12/27 07:00:12;;;;;;;6.50;1.90;;;;;;;;;;5093629;28;20447;-67
2022/12/27 07:02:40;;;;;;;5.57;2.43;;;;;;;;;;5092642;28;20486;-67
2022/12/27 07:05:07;;;;;;;2.80;2.50;;;;;;;;;;5093146;28;20454;-67
2022/12/27 07:07:34;;;;;;;3.20;2.90;;;;;;;;;;5093520;28;20478;-66
2022/12/27 07:10:03;;;;;;;3.97;3.23;;;;;;;;;;5093546;28;20446;-66
2022/12/27 07:12:30;;;;;;;5.07;3.20;;;;;;;;;;5093505;28;20936;-67
2022/12/27 07:14:57;;;;;;;5.90;3.80;;;;;;;;;;5092871;28;20473;-67
2022/12/27 07:17:24;;;;;;;5.93;4.43;;;;;;;;;;5093459;28;20475;-67
2022/12/27 07:19:51;;;;;;;8.17;4.07;;;;;;;;;;5093249;28;20486;-66
2022/12/27 07:22:18;;;;;;;6.17;4.00;;;;;;;;;;5094294;28;20438;-67
2022/12/27 07:24:45;;;;;;;17.63;5.00;;;;;;;;;;5093297;28;20451;-67
2022/12/27 07:27:14;;;;;;;9.10;4.87;;;;;;;;;;5093568;28;20458;-67
2022/12/27 07:29:41;;;;;;;12.83;5.50;;;;;;;;;;5093244;28;20471;-67
2022/12/27 07:32:08;;;;;;;4.73;3.40;;;;;;;;;;5093577;28;20789;-67
2022/12/27 07:34:35;;;;;;;9.30;3.30;;;;;;;;;;5093113;28;20451;-67
2022/12/27 07:37:02;;;;;;;19.83;10.60;;;;;;;;;;5093505;28;20450;-67
2022/12/27 07:39:29;;;;;;;47.13;20.43;;;;;;;;;;5092982;28;20483;-67
2022/12/27 07:41:56;;;;;;;16.13;7.17;;;;;;;;;;5093498;28;20938;-67
2022/12/27 07:44:25;;;;;;;10.23;4.00;;;;;;;;;;5092914;28;20818;-67
2022/12/27 07:46:52;;;;;;;5.70;3.57;;;;;;;;;;5093098;28;20455;-67
2022/12/27 07:49:19;;;;;;;7.13;5.00;;;;;;;;;;5093328;28;20654;-67
2022/12/27 07:51:46;;;;;;;9.27;5.40;;;;;;;;;;5093250;28;20454;-67
2022/12/27 07:54:13;;;;;;;7.07;4.47;;;;;;;;;;5092516;28;20450;-67
2022/12/27 07:56:40;;;;;;;6.20;3.30;;;;;;;;;;5092887;28;20455;-67
2022/12/27 07:59:11;;;;;;;7.10;4.30;;;;;;;;;;5092992;28;20987;-67
2022/12/27 08:04:24;;;;;;;6.50;4.40;;;;;;;;;;5091657;28;20431;-67
2022/12/27 08:06:51;;;;;;;12.10;6.20;;;;;;;;;;5092958;28;20935;-67
2022/12/27 08:09:21;;;;;;;8.20;3.97;;;;;;;;;;5092917;28;20829;-67
2022/12/27 08:11:48;;;;;;;5.40;3.83;;;;;;;;;;5092838;28;20967;-67
2022/12/27 08:14:15;;;;;;;6.40;4.00;;;;;;;;;;5095327;28;20446;-67
2022/12/27 08:16:43;;;;;;;7.60;3.80;;;;;;;;;;5097112;28;20447;-67
2022/12/27 08:19:10;;;;;;;6.17;2.97;;;;;;;;;;5096911;28;20494;-67
2022/12/27 08:21:37;;;;;;;4.33;2.67;;;;;;;;;;5096933;28;20896;-67
2022/12/27 08:24:05;;;;;;;4.13;2.37;;;;;;;;;;5096417;28;20947;-67
2022/12/27 08:26:32;;;;;;;9.13;3.40;;;;;;;;;;5096356;28;20462;-67
2022/12/27 08:28:59;;;;;;;5.17;3.10;;;;;;;;;;5096608;28;20473;-67
2022/12/27 08:31:26;;;;;;;5.90;3.50;;;;;;;;;;5096878;28;20525;-68
2022/12/27 08:33:56;;;;;;;4.03;2.60;;;;;;;;;;5095986;28;20450;-68
2022/12/27 08:36:23;;;;;;;3.93;2.07;;;;;;;;;;5096874;28;20451;-67
2022/12/27 08:38:50;;;;;;;2.80;2.50;;;;;;;;;;5096451;28;20497;-69
2022/12/27 08:41:20;;;;;;;3.00;2.10;;;;;;;;;;5096784;28;20454;-67
2022/12/27 08:43:47;;;;;;;4.03;2.80;;;;;;;;;;5096255;28;20466;-67
2022/12/27 08:46:14;;;;;;;5.00;2.87;;;;;;;;;;5096358;28;20450;-67
2022/12/27 08:48:41;;;;;;;4.53;2.43;;;;;;;;;;5096329;28;20469;-67
2022/12/27 08:51:10;;;;;;;2.40;1.87;;;;;;;;;;5096189;28;20450;-67
2022/12/27 08:53:37;;;;;;;3.00;1.87;;;;;;;;;;5096304;28;20446;-67
2022/12/27 08:56:04;;;;;;;2.00;1.50;;;;;;;;;;5096191;28;20443;-67
2022/12/27 08:58:31;;;;;;;2.30;1.90;;;;;;;;;;5096418;28;20470;-67
2022/12/27 09:01:04;;;;;;;3.20;2.20;;;;;;;;;;5096452;28;20952;-67
2022/12/27 09:03:31;;;;;;;2.27;1.80;;;;;;;;;;5096081;28;20442;-67
2022/12/27 09:06:07;;;;;;;3.57;2.13;;;;;;;;;;5096274;28;20466;-67
2022/12/27 09:08:35;;;;;;;4.10;1.77;;;;;;;;;;5096488;28;20497;-67
2022/12/27 09:11:07;;;;;;;4.63;2.20;;;;;;;;;;5095955;28;20450;-67
2022/12/27 09:13:35;;;;;;;6.30;2.20;;;;;;;;;;5096044;28;20439;-67
2022/12/27 09:16:05;;;;;;;6.60;1.90;;;;;;;;;;5096001;28;20451;-67
2022/12/27 09:18:32;;;;;;;3.70;1.77;;;;;;;;;;5096007;28;20474;-67
2022/12/27 09:21:03;;;;;;;2.83;1.93;;;;;;;;;;5095705;28;20446;-67
2022/12/27 09:23:30;;;;;;;2.37;1.60;;;;;;;;;;5095766;28;20438;-67
2022/12/27 09:25:59;;;;;;;2.63;1.70;;;;;;;;;;5094218;28;20462;-67
2022/12/27 09:28:26;;;;;;;3.67;1.40;;;;;;;;;;5095953;28;20975;-68
2022/12/27 09:30:53;;;;;;;1.90;1.67;;;;;;;;;;5095848;28;20951;-68
2022/12/27 09:33:20;;;;;;;2.80;1.40;;;;;;;;;;5095673;28;20799;-68
2022/12/27 09:35:47;;;;;;;2.87;1.77;;;;;;;;;;5095199;28;20927;-68
2022/12/27 09:38:14;;;;;;;6.67;1.70;;;;;;;;;;5095213;28;20822;-68
2022/12/27 09:40:51;;;;;;;7.13;1.90;;;;;;;;;;5095406;28;20478;-68
2022/12/27 09:43:22;;;;;;;2.63;1.33;;;;;;;;;;5095232;28;20465;-68
2022/12/27 09:45:51;;;;;;;1.60;1.00;;;;;;;;;;5094799;28;20454;-68
2022/12/27 09:48:21;;;;;;;3.20;1.40;;;;;;;;;;5094615;28;20497;-68
2022/12/27 09:50:50;;;;;;;2.60;1.20;;;;;;;;;;5095024;28;20447;-68
2022/12/27 09:53:19;;;;;;;3.43;1.70;;;;;;;;;;5095040;28;20450;-68
2022/12/27 09:55:48;;;;;;;4.50;2.10;;;;;;;;;;5090347;28;20474;-68
2022/12/27 09:58:24;;;;;;;3.10;1.60;;;;;;;;;;5093555;28;20475;-68
2022/12/27 10:00:52;;;;;;;2.07;1.47;;;;;;;;;;5093099;28;20865;-68
2022/12/27 10:03:20;;;;;;;3.77;2.57;;;;;;;;;;5093138;28;20932;-68
2022/12/27 10:05:50;;;;;;;3.90;2.40;;;;;;;;;;5092672;28;20455;-68
2022/12/27 10:08:22;;;;;;;6.80;2.37;;;;;;;;;;5092795;28;20489;-68
2022/12/27 10:10:53;;;;;;;4.60;2.83;;;;;;;;;;5093013;28;20451;-68
2022/12/27 10:13:30;;;;;;;2.80;1.67;;;;;;;;;;5093697;28;20443;-68
2022/12/27 10:16:01;;;;;;;6.57;1.77;;;;;;;;;;5093217;28;20442;-68
2022/12/27 10:18:38;;;;;;;2.30;1.40;;;;;;;;;;5092616;28;20493;-68
2022/12/27 10:21:12;;;;;;;2.40;1.27;;;;;;;;;;5093057;28;20518;-68
2022/12/27 10:23:41;;;;;;;2.97;1.67;;;;;;;;;;5092525;28;20508;-68
2022/12/27 10:26:13;;;;;;;6.30;2.50;;;;;;;;;;5092942;28;20962;-68
2022/12/27 10:28:43;;;;;;;4.73;1.30;;;;;;;;;;5092589;28;20475;-68
2022/12/27 10:31:13;;;;;;;2.40;1.57;;;;;;;;;;5092624;28;20649;-68
2022/12/27 10:33:40;;;;;;;2.53;1.27;;;;;;;;;;5092746;28;20467;-68
2022/12/27 10:36:10;;;;;;;2.03;1.70;;;;;;;;;;5092404;28;20454;-68
2022/12/27 10:38:37;;;;;;;2.63;1.70;;;;;;;;;;5092950;28;20473;-68
2022/12/27 10:41:11;;;;;;;6.30;1.70;;;;;;;;;;5093222;28;20493;-69
2022/12/27 10:43:40;;;;;;;2.00;1.23;;;;;;;;;;5094712;28;20467;-68
2022/12/27 10:46:13;;;;;;;3.27;1.77;;;;;;;;;;5094489;28;20449;-68
2022/12/27 10:48:41;;;;;;;2.27;1.17;;;;;;;;;;5094247;28;20875;-70
2022/12/27 10:51:09;;;;;;;2.67;1.40;;;;;;;;;;5094243;28;20446;-68
2022/12/27 10:53:37;;;;;;;5.03;2.10;;;;;;;;;;5094399;28;20451;-68
2022/12/27 10:56:08;;;;;;;4.50;2.67;;;;;;;;;;5094064;28;20458;-70
2022/12/27 10:58:38;;;;;;;2.43;2.00;;;;;;;;;;5094398;28;20535;-69
2022/12/27 11:01:05;;;;;;;3.17;1.20;;;;;;;;;;5094007;28;20494;-68
2022/12/27 11:03:34;;;;;;;3.70;1.80;;;;;;;;;;5094204;28;20450;-68
2022/12/27 11:06:02;;;;;;;2.33;1.60;;;;;;;;;;5094012;28;20446;-68
2022/12/27 11:08:29;;;;;;;2.90;1.90;;;;;;;;;;5094202;28;20478;-68
2022/12/27 11:11:12;;;;;;;3.03;1.80;;;;;;;;;;5094257;28;20449;-68
2022/12/27 11:13:39;;;;;;;1.87;1.33;;;;;;;;;;5094284;28;20520;-68
2022/12/27 11:16:07;;;;;;;3.23;1.47;;;;;;;;;;5094221;28;20963;-68
2022/12/27 11:18:36;;;;;;;2.30;1.33;;;;;;;;;;5094035;28;20983;-68
2022/12/27 11:21:03;;;;;;;2.63;1.40;;;;;;;;;;5093968;28;20490;-68
2022/12/27 11:23:35;;;;;;;2.57;1.50;;;;;;;;;;5094009;28;20461;-68
2022/12/27 11:26:03;;;;;;;2.00;1.43;;;;;;;;;;5094035;28;20439;-68
2022/12/27 11:28:33;;;;;;;1.83;1.50;;;;;;;;;;5093671;28;20470;-68
2022/12/27 11:31:01;;;;;;;6.00;2.13;;;;;;;;;;5093915;28;20441;-68
2022/12/27 11:33:33;;;;;;;4.57;1.67;;;;;;;;;;5093409;28;20458;-68
2022/12/27 11:36:02;;;;;;;3.07;1.50;;;;;;;;;;5093852;28;20439;-68
2022/12/27 11:38:30;;;;;;;2.27;1.63;;;;;;;;;;5093518;28;20469;-69
2022/12/27 11:40:59;;;;;;;2.17;1.63;;;;;;;;;;5093185;28;20482;-68
2022/12/27 11:43:28;;;;;;;3.77;1.70;;;;;;;;;;5093314;28;20458;-70
2022/12/27 11:45:56;;;;;;;1.83;1.40;;;;;;;;;;5093518;28;20454;-70
2022/12/27 11:48:25;;;;;;;3.07;1.33;;;;;;;;;;5092745;28;20473;-68
2022/12/27 11:51:01;;;;;;;2.53;1.40;;;;;;;;;;5093374;28;20497;-68
2022/12/27 11:53:47;;;;;;;2.50;1.90;;;;;;;;;;5092852;28;20908;-68
2022/12/27 11:56:18;;;;;;;6.67;1.50;;;;;;;;;;5093129;28;20454;-68
2022/12/27 11:59:00;;;;;;;2.50;1.50;;;;;;;;;;5092891;28;20498;-68
2022/12/27 12:01:45;;;;;;;2.10;1.40;;;;;;;;;;5093045;28;20486;-68
2022/12/27 12:04:35;;;;;;;4.70;1.83;;;;;;;;;;5092336;28;20971;-67
2022/12/27 12:07:08;;;;;;;3.00;1.83;;;;;;;;;;5085281;28;20468;-67
2022/12/27 12:09:56;;;;;;;6.20;1.53;;;;;;;;;;5090343;28;20458;-67
2022/12/27 12:12:38;;;;;;;1.73;1.10;;;;;;;;;;5086257;28;20451;-68
2022/12/27 12:15:35;;;;;;;2.47;1.20;;;;;;;;;;5090385;28;20461;-68
2022/12/27 12:18:12;;;;;;;2.73;2.10;;;;;;;;;;5027653;28;20474;-68
2022/12/27 12:20:46;;;;;;;3.63;1.10;;;;;;;;;;5079947;28;20526;-68
2022/12/27 12:23:19;;;;;;;1.63;1.10;;;;;;;;;;5090253;28;20453;-68
2022/12/27 12:26:04;;;;;;;3.37;1.60;;;;;;;;;;5090521;28;20435;-67
2022/12/27 12:28:42;;;;;;;1.80;1.30;;;;;;;;;;5090404;28;20470;-69
2022/12/27 12:31:15;;;;;;;3.90;2.00;;;;;;;;;;5091347;28;20829;-68
2022/12/27 12:33:53;;;;;;;3.00;1.43;;;;;;;;;;5091008;28;20969;-67
2022/12/27 12:36:36;;;;;;;5.03;2.20;;;;;;;;;;5091220;28;20438;-68
2022/12/27 12:39:06;;;;;;;2.10;1.67;;;;;;;;;;5090966;28;21285;-67
2022/12/27 12:41:47;;;;;;;4.00;1.63;;;;;;;;;;5091386;28;20522;-67
2022/12/27 12:44:26;;;;;;;2.50;1.30;;;;;;;;;;5090003;28;20463;-68
2022/12/27 12:46:57;;;;;;;2.33;1.40;;;;;;;;;;5090550;28;20462;-68
2022/12/27 12:49:38;;;;;;;6.83;1.40;;;;;;;;;;5091622;28;20469;-68
2022/12/27 12:52:16;;;;;;;3.23;1.20;;;;;;;;;;5092158;28;20481;-67
2022/12/27 12:54:59;;;;;;;2.37;1.40;;;;;;;;;;5092171;28;20810;-68
2022/12/27 12:57:38;;;;;;;3.90;1.50;;;;;;;;;;5092276;28;20466;-68
2022/12/27 13:00:11;;;;;;;1.87;1.10;;;;;;;;;;5094747;28;20566;-68
2022/12/27 13:02:53;;;;;;;5.40;1.47;;;;;;;;;;5096079;28;20446;-67
2022/12/27 13:05:24;;;;;;;3.33;1.43;;;;;;;;;;5062647;28;20815;-67
2022/12/27 13:07:56;;;;;;;8.23;1.37;;;;;;;;;;5096384;28;20846;-67
2022/12/27 13:10:42;;;;;;;2.13;1.10;;;;;;;;;;5096483;28;20922;-67
2022/12/27 13:13:13;;;;;;;1.80;1.20;;;;;;;;;;5096471;28;20455;-67
2022/12/27 13:15:47;;;;;;;1.63;1.20;;;;;;;;;;5095724;28;20447;-67
2022/12/27 13:18:19;;;;;;;2.60;1.60;;;;;;;;;;5096226;28;21004;-67
2022/12/27 13:21:04;;;;;;;4.27;1.57;;;;;;;;;;5095712;28;20498;-67
2022/12/27 13:23:39;;;;;;;3.23;1.60;;;;;;;;;;5095329;28;20550;-67
2022/12/27 13:26:09;;;;;;;11.13;2.03;;;;;;;;;;5095968;28;20740;-67
2022/12/27 13:28:42;;;;;;;3.20;1.33;;;;;;;;;;5095947;28;20482;-68
2022/12/27 13:31:25;;;;;;;2.13;1.40;;;;;;;;;;5095720;28;20769;-67
2022/12/27 13:33:56;;;;;;;2.43;1.40;;;;;;;;;;5095598;28;20434;-66
2022/12/27 13:36:26;;;;;;;2.07;1.50;;;;;;;;;;5095837;28;20837;-66
2022/12/27 13:39:07;;;;;;;2.10;1.30;;;;;;;;;;5096071;28;20836;-67
2022/12/27 13:41:38;;;;;;;3.20;1.40;;;;;;;;;;5095764;28;20473;-67
2022/12/27 13:44:10;;;;;;;1.73;1.27;;;;;;;;;;5094850;28;20465;-69
2022/12/27 13:46:44;;;;;;;3.80;1.80;;;;;;;;;;5094943;28;20438;-67
2022/12/27 13:49:27;;;;;;;6.40;2.53;;;;;;;;;;5095447;28;20968;-67
2022/12/27 13:52:00;;;;;;;4.23;2.00;;;;;;;;;;5095533;28;20427;-67
2022/12/27 13:54:40;;;;;;;3.73;2.00;;;;;;;;;;5095239;28;20431;-67
2022/12/27 13:57:15;;;;;;;3.43;2.10;;;;;;;;;;5095506;28;20434;-67
2022/12/27 13:59:58;;;;;;;3.07;1.50;;;;;;;;;;5095403;28;20449;-67
2022/12/27 14:02:44;;;;;;;3.73;1.73;;;;;;;;;;5095455;28;20443;-67
2022/12/27 14:05:23;;;;;;;2.00;1.40;;;;;;;;;;5095071;28;20466;-67
2022/12/27 14:07:57;;;;;;;4.30;1.60;;;;;;;;;;5094966;28;20482;-67
2022/12/27 14:10:30;;;;;;;6.37;3.13;;;;;;;;;;5094640;28;20438;-67
2022/12/27 14:12:58;;;;;;;5.23;2.27;;;;;;;;;;5095094;28;20802;-67
2022/12/27 14:15:56;;;;;;;4.00;1.80;;;;;;;;;;5094833;28;20454;-67
2022/12/27 14:18:30;;;;;;;2.20;1.37;;;;;;;;;;5094771;28;20478;-67
2022/12/27 14:21:03;;;;;;;4.40;2.00;;;;;;;;;;5095004;28;20990;-67
2022/12/27 14:23:37;;;;;;;3.40;1.90;;;;;;;;;;5094440;28;20443;-66
2022/12/27 14:26:20;;;;;;;8.93;2.90;;;;;;;;;;5094674;28;20460;-66
2022/12/27 14:29:06;;;;;;;6.43;2.50;;;;;;;;;;5093806;28;20467;-67
2022/12/27 14:31:51;;;;;;;3.17;2.40;;;;;;;;;;5094642;28;20820;-66
2022/12/27 14:34:32;;;;;;;4.37;2.13;;;;;;;;;;5094340;28;20433;-67
2022/12/27 14:37:07;;;;;;;2.00;1.47;;;;;;;;;;5094749;28;20435;-67
2022/12/27 14:39:53;;;;;;;3.93;2.10;;;;;;;;;;5094301;28;20907;-67
2022/12/27 14:42:35;;;;;;;3.60;1.83;;;;;;;;;;5094242;28;20474;-67
2022/12/27 14:45:15;;;;;;;7.67;2.53;;;;;;;;;;5091257;28;20492;-67
2022/12/27 14:48:05;;;;;;;3.47;2.43;;;;;;;;;;5094446;28;20481;-67
2022/12/27 14:50:49;;;;;;;4.30;2.20;;;;;;;;;;5094516;28;20773;-67
2022/12/27 14:53:34;;;;;;;14.70;2.20;;;;;;;;;;5094078;28;20447;-67
2022/12/27 14:56:08;;;;;;;3.80;1.90;;;;;;;;;;5094060;28;20451;-67
2022/12/27 14:58:39;;;;;;;3.60;2.07;;;;;;;;;;5093539;28;20497;-67
2022/12/27 15:01:10;;;;;;;4.90;2.17;;;;;;;;;;5094225;28;20495;-67
2022/12/27 15:03:53;;;;;;;2.47;2.27;;;;;;;;;;5093525;28;20443;-67
2022/12/27 15:06:23;;;;;;;4.87;2.53;;;;;;;;;;5094108;28;20462;-67
2022/12/27 15:08:59;;;;;;;3.90;2.40;;;;;;;;;;5094212;28;20894;-67
2022/12/27 15:11:36;;;;;;;3.60;2.83;;;;;;;;;;5093786;28;20438;-67
2022/12/27 15:14:10;;;;;;;3.90;2.80;;;;;;;;;;5093706;28;21132;-67
2022/12/27 15:16:43;;;;;;;3.10;2.37;;;;;;;;;;5093873;28;20441;-67
2022/12/27 15:19:17;;;;;;;2.57;2.30;;;;;;;;;;5093871;28;20507;-67
2022/12/27 15:21:59;;;;;;;6.10;2.60;;;;;;;;;;5093819;28;21085;-68
2022/12/27 15:24:30;;;;;;;5.20;2.70;;;;;;;;;;5092341;28;20462;-66
2022/12/27 15:27:01;;;;;;;7.07;4.53;;;;;;;;;;5093601;28;20458;-67
2022/12/27 15:29:36;;;;;;;9.43;4.63;;;;;;;;;;5093813;28;20923;-67
2022/12/27 15:32:07;;;;;;;9.80;5.80;;;;;;;;;;5093813;28;20423;-67
2022/12/27 15:34:40;;;;;;;5.20;3.70;;;;;;;;;;5093134;28;20439;-67
2022/12/27 15:37:27;;;;;;;5.87;3.53;;;;;;;;;;5093234;28;20451;-67
2022/12/27 15:39:56;;;;;;;8.10;5.10;;;;;;;;;;5092957;28;20447;-67
2022/12/27 15:42:32;;;;;;;22.57;10.27;;;;;;;;;;5093486;28;20494;-67
2022/12/27 15:45:04;;;;;;;10.77;7.60;;;;;;;;;;5092816;28;20540;-67
2022/12/27 15:47:55;;;;;;;13.83;9.20;;;;;;;;;;5093120;28;20506;-67
2022/12/27 15:50:29;;;;;;;51.33;27.50;;;;;;;;;;5078002;28;20973;-67
2022/12/27 15:53:12;;;;;;;31.90;16.97;;;;;;;;;;5093095;28;20430;-67
2022/12/27 15:55:50;;;;;;;21.43;13.30;;;;;;;;;;5092960;28;20461;-66
2022/12/27 15:58:18;;;;;;;27.03;12.17;;;;;;;;;;5092845;28;20832;-67
2022/12/27 16:00:46;;;;;;;19.47;11.80;;;;;;;;;;5093153;28;20447;-67
2022/12/27 16:03:32;;;;;;;19.77;11.60;;;;;;;;;;5093374;28;20924;-67
2022/12/27 16:06:00;;;;;;;27.77;13.30;;;;;;;;;;5093150;28;20490;-67
2022/12/27 16:08:29;;;;;;;22.37;12.77;;;;;;;;;;5093220;28;20967;-67
2022/12/27 16:10:58;;;;;;;20.10;11.80;;;;;;;;;;5093145;28;20458;-67
2022/12/27 16:13:30;;;;;;;20.13;12.90;;;;;;;;;;5093073;28;20458;-67
2022/12/27 16:15:58;;;;;;;26.70;13.50;;;;;;;;;;5093173;28;20896;-67
2022/12/27 16:18:43;;;;;;;19.97;11.80;;;;;;;;;;5092685;28;20471;-67
2022/12/27 16:21:15;;;;;;;17.50;9.37;;;;;;;;;;5093007;28;20849;-67
2022/12/27 16:23:48;;;;;;;17.93;11.47;;;;;;;;;;5092308;28;20439;-67
2022/12/27 16:26:19;;;;;;;23.90;12.83;;;;;;;;;;5093093;28;20437;-69
2022/12/27 16:28:52;;;;;;;22.77;13.13;;;;;;;;;;5092943;28;20987;-67
2022/12/27 16:31:21;;;;;;;23.27;14.43;;;;;;;;;;5092742;28;20434;-67
2022/12/27 16:33:49;;;;;;;26.63;15.03;;;;;;;;;;5092954;28;20537;-67
2022/12/27 16:36:18;;;;;;;42.57;22.33;;;;;;;;;;5096884;28;20457;-67
2022/12/27 16:38:48;;;;;;;58.40;30.57;;;;;;;;;;5096692;28;20470;-67